Time;durP1;ratioP1;P1;durP2;ratioP2;P2;SDS_P1;SDS_P2;PMS_P1;PMS_P2;Temp;Humidity;BMP_temperature;BMP_pressure;BME280_temperature;BME280_humidity;BME280_pressure;Samples;Min_cycle;Max_cycle;Signal;HPM_P1;HPM_P2
2022/01/26 00:06:42;;;;;;;13.32;5.38;;;2.60;99.90;;;;;;5116816;27;19960;-81
2022/01/26 00:09:09;;;;;;;5.53;1.98;;;2.60;99.90;;;;;;5100339;27;20035;-81
2022/01/26 00:11:36;;;;;;;10.13;4.47;;;2.60;99.90;;;;;;5099755;27;20035;-81
2022/01/26 00:14:09;;;;;;;17.10;6.53;;;2.60;99.90;;;;;;5117316;27;20088;-80
2022/01/26 00:16:40;;;;;;;7.78;4.38;;;2.50;99.90;;;;;;5099783;27;20483;-80
2022/01/26 00:19:08;;;;;;;12.25;5.63;;;2.60;99.90;;;;;;5099815;27;20043;-81
2022/01/26 00:21:38;;;;;;;18.60;8.43;;;2.50;99.90;;;;;;5100242;27;20087;-80
2022/01/26 00:24:21;;;;;;;4.80;2.92;;;2.50;99.90;;;;;;5099942;27;20070;-81
2022/01/26 00:29:23;;;;;;;15.35;4.85;;;2.50;99.90;;;;;;5116954;27;20129;-80
2022/01/26 00:43:01;;;;;;;18.13;6.70;;;2.40;99.90;;;;;;5116426;27;20419;-80
2022/01/26 00:45:34;;;;;;;6.00;3.30;;;2.40;99.90;;;;;;5099525;27;20031;-80
2022/01/26 00:48:04;;;;;;;19.92;8.18;;;2.40;99.90;;;;;;5099500;27;20103;-80
2022/01/26 00:50:30;;;;;;;17.90;7.25;;;2.30;99.90;;;;;;5116699;27;20039;-81
2022/01/26 00:52:56;;;;;;;36.05;11.65;;;2.40;99.90;;;;;;5116527;27;20484;-80
2022/01/26 00:55:22;;;;;;;23.75;9.50;;;2.40;99.90;;;;;;5116651;27;20046;-81
2022/01/26 00:57:48;;;;;;;21.08;8.13;;;2.40;99.90;;;;;;5115754;27;20050;-80
2022/01/26 01:00:17;;;;;;;28.23;9.63;;;2.30;99.90;;;;;;5099169;27;20031;-80
2022/01/26 01:02:43;;;;;;;19.60;4.35;;;2.30;99.90;;;;;;5116163;27;20043;-80
2022/01/26 01:05:18;;;;;;;8.73;4.72;;;2.30;99.90;;;;;;5099185;27;20039;-80
2022/01/26 01:07:46;;;;;;;15.60;6.50;;;2.30;99.90;;;;;;5099100;27;20085;-80
2022/01/26 01:10:14;;;;;;;4.00;2.08;;;2.30;99.90;;;;;;5099243;27;20084;-80
2022/01/26 01:12:43;;;;;;;5.10;3.42;;;2.30;99.90;;;;;;5099046;27;20031;-80
2022/01/26 01:15:09;;;;;;;11.82;5.15;;;2.30;99.90;;;;;;5098787;27;20042;-80
2022/01/26 01:17:42;;;;;;;7.00;2.92;;;2.30;99.90;;;;;;5098455;27;20039;-81
2022/01/26 01:20:41;;;;;;;29.33;4.82;;;2.30;99.90;;;;;;5098959;27;20031;-80
2022/01/26 01:31:14;;;;;;;13.18;6.43;;;2.30;99.90;;;;;;5092398;27;20050;-80
2022/01/26 01:33:44;;;;;;;30.60;6.43;;;2.30;99.90;;;;;;5098833;28;20047;-80
2022/01/26 01:36:11;;;;;;;8.45;4.57;;;2.30;99.90;;;;;;5115215;28;20039;-81
2022/01/26 01:38:41;;;;;;;18.10;6.53;;;2.30;99.90;;;;;;5115462;28;20039;-81
2022/01/26 01:41:06;;;;;;;9.60;4.15;;;2.30;99.90;;;;;;5098653;28;20104;-81
2022/01/26 01:43:32;;;;;;;9.02;3.60;;;2.30;99.90;;;;;;5115658;28;20546;-81
2022/01/26 01:45:58;;;;;;;4.93;2.92;;;2.30;99.90;;;;;;5099122;28;20050;-80
2022/01/26 01:48:29;;;;;;;8.85;4.15;;;2.30;99.90;;;;;;5115458;28;20031;-81
2022/01/26 01:50:57;;;;;;;12.73;5.22;;;2.30;99.90;;;;;;5098590;28;20399;-80
2022/01/26 01:53:31;;;;;;;11.82;5.22;;;2.30;99.90;;;;;;5098879;28;20043;-80
2022/01/26 01:55:59;;;;;;;17.95;8.32;;;2.30;99.90;;;;;;5098609;28;20172;-80
2022/01/26 01:58:25;;;;;;;9.23;5.70;;;2.30;99.90;;;;;;5098079;28;20544;-81
2022/01/26 02:00:51;;;;;;;13.90;6.93;;;2.20;99.90;;;;;;5115491;28;20036;-81
2022/01/26 02:03:16;;;;;;;9.95;4.43;;;2.20;99.90;;;;;;5098792;28;20114;-81
2022/01/26 02:05:42;;;;;;;4.00;1.85;;;2.20;99.90;;;;;;5098769;28;20537;-80
2022/01/26 02:08:08;;;;;;;18.33;8.40;;;2.20;99.90;;;;;;5098170;28;20052;-80
2022/01/26 02:10:34;;;;;;;11.10;5.32;;;2.20;99.90;;;;;;5098737;28;20038;-80
2022/01/26 02:13:05;;;;;;;8.80;4.35;;;2.20;99.90;;;;;;5098513;28;20039;-80
2022/01/26 02:15:40;;;;;;;2.33;2.13;;;2.20;99.90;;;;;;5098454;28;20035;-80
2022/01/26 02:18:19;;;;;;;5.47;3.53;;;2.20;99.90;;;;;;5097886;28;20503;-80
2022/01/26 02:51:12;;;;;;;29.48;12.00;;;2.10;99.90;;;;;;5118960;27;20652;-80
2022/01/26 02:53:51;;;;;;;10.50;4.45;;;2.10;99.90;;;;;;5101964;27;20495;-80
2022/01/26 02:56:27;;;;;;;25.55;8.60;;;2.10;99.90;;;;;;5101744;27;20074;-80
2022/01/26 02:59:30;;;;;;;13.40;5.75;;;2.10;99.90;;;;;;5101411;27;20039;-81
2022/01/26 03:02:06;;;;;;;14.20;6.03;;;2.10;99.90;;;;;;5118396;27;20431;-81
2022/01/26 03:04:45;;;;;;;10.30;5.03;;;2.10;99.90;;;;;;5101534;27;20072;-81
2022/01/26 03:07:21;;;;;;;1.50;1.40;;;2.10;99.90;;;;;;5101223;27;20073;-80
2022/01/26 03:09:55;;;;;;;15.98;7.07;;;2.10;99.90;;;;;;5118335;27;20407;-80
2022/01/26 03:12:31;;;;;;;6.35;4.72;;;2.10;99.90;;;;;;5118380;27;20053;-80
2022/01/26 03:15:02;;;;;;;8.93;4.72;;;2.10;99.90;;;;;;5118295;27;20043;-80
2022/01/26 03:20:09;;;;;;;11.63;5.72;;;2.10;99.90;;;;;;5118079;27;20403;-80
2022/01/26 03:28:26;;;;;;;2.00;1.85;;;2.10;99.90;;;;;;5117635;27;20211;-80
2022/01/26 03:36:18;;;;;;;8.93;3.72;;;2.10;99.90;;;;;;5117485;27;20130;-81
2022/01/26 03:38:47;;;;;;;2.20;1.65;;;2.10;99.90;;;;;;5100652;27;20134;-81
2022/01/26 03:41:26;;;;;;;7.57;3.42;;;2.10;99.90;;;;;;5100777;27;20051;-81
2022/01/26 03:43:52;;;;;;;3.45;2.70;;;2.10;99.90;;;;;;5100950;27;20535;-81
2022/01/26 03:46:18;;;;;;;2.83;2.60;;;2.10;99.90;;;;;;5099448;27;20077;-80
2022/01/26 03:48:43;;;;;;;5.78;3.10;;;2.10;99.90;;;;;;5100551;27;20126;-80
2022/01/26 03:51:09;;;;;;;2.17;1.52;;;2.20;99.90;;;;;;5100892;27;20050;-80
2022/01/26 03:53:34;;;;;;;3.00;1.77;;;2.10;99.90;;;;;;5100514;27;20039;-80
2022/01/26 03:56:00;;;;;;;2.50;1.73;;;2.10;99.90;;;;;;5117467;27;20039;-81
2022/01/26 03:58:25;;;;;;;16.25;7.18;;;2.10;99.90;;;;;;5100118;27;20062;-80
2022/01/26 04:00:51;;;;;;;0.77;0.68;;;2.10;99.90;;;;;;5100378;27;20427;-81
2022/01/26 04:03:16;;;;;;;7.32;3.72;;;2.10;99.90;;;;;;5100417;27;20118;-80
2022/01/26 04:05:43;;;;;;;4.53;2.38;;;2.20;99.90;;;;;;5100368;27;20073;-80
2022/01/26 04:08:15;;;;;;;3.40;2.42;;;2.10;99.90;;;;;;5100072;27;20039;-80
2022/01/26 04:10:59;;;;;;;8.23;3.75;;;2.10;99.90;;;;;;5117165;27;20055;-81
2022/01/26 04:13:24;;;;;;;6.95;3.83;;;2.10;99.90;;;;;;5100171;27;20039;-81
2022/01/26 04:15:51;;;;;;;13.82;6.38;;;2.20;99.90;;;;;;5116952;27;20083;-81
2022/01/26 04:18:21;;;;;;;8.50;4.97;;;2.10;99.90;;;;;;5116565;27;20126;-81
2022/01/26 04:20:51;;;;;;;11.30;4.22;;;2.10;99.90;;;;;;5100184;27;20034;-80
2022/01/26 04:23:46;;;;;;;3.05;2.40;;;2.10;99.90;;;;;;5099937;27;20118;-81
2022/01/26 04:26:03;;;;;;;;;;;2.20;99.90;;;;;;5116480;27;20047;-81
2022/01/26 04:28:38;;;;;;;14.30;5.63;;;2.10;99.90;;;;;;5116884;27;19940;-80
2022/01/26 04:31:03;;;;;;;;;;;2.10;99.90;;;;;;5117387;27;20038;-80
2022/01/26 04:33:32;;;;;;;13.05;3.65;;;2.10;99.90;;;;;;5099653;27;19938;-80
2022/01/26 04:35:58;;;;;;;17.77;6.85;;;2.10;99.90;;;;;;5099665;27;20095;-80
2022/01/26 04:38:39;;;;;;;8.00;3.72;;;2.10;99.90;;;;;;5116152;27;20555;-80
2022/01/26 04:43:35;;;;;;;10.98;4.20;;;2.10;99.90;;;;;;5116507;27;20039;-80
2022/01/26 04:46:00;;;;;;;7.82;3.92;;;2.10;99.90;;;;;;5099470;27;20042;-81
2022/01/26 04:48:26;;;;;;;12.88;5.72;;;2.10;99.90;;;;;;5116539;27;20060;-80
2022/01/26 04:50:53;;;;;;;16.35;7.35;;;2.10;99.90;;;;;;5116467;27;20043;-80
2022/01/26 04:53:19;;;;;;;9.68;4.50;;;2.00;99.90;;;;;;5099392;27;20043;-80
2022/01/26 04:55:44;;;;;;;12.85;6.22;;;2.10;99.90;;;;;;5099546;27;20045;-81
2022/01/26 04:58:10;;;;;;;7.88;4.22;;;2.00;99.90;;;;;;5115875;27;20039;-80
2022/01/26 05:00:35;;;;;;;10.43;4.72;;;2.00;99.90;;;;;;5099122;27;20031;-81
2022/01/26 05:03:01;;;;;;;6.65;2.58;;;2.00;99.90;;;;;;5097510;27;20045;-81
2022/01/26 05:05:27;;;;;;;9.15;4.18;;;2.00;99.90;;;;;;5115618;27;20028;-80
2022/01/26 05:07:52;;;;;;;5.65;3.58;;;2.70;99.90;;;;;;5098162;27;20043;-81
2022/01/26 05:10:18;;;;;;;8.88;4.72;;;2.00;99.90;;;;;;5098602;27;20035;-80
2022/01/26 05:12:43;;;;;;;24.95;7.93;;;2.00;99.90;;;;;;5103041;27;20045;-80
2022/01/26 05:15:10;;;;;;;3.75;2.25;;;2.00;99.90;;;;;;5118833;27;20034;-81
2022/01/26 05:17:36;;;;;;;8.52;4.10;;;2.00;99.90;;;;;;5118474;27;20086;-81
2022/01/26 05:20:04;;;;;;;4.82;2.42;;;2.00;99.90;;;;;;5118730;27;20066;-80
2022/01/26 05:22:32;;;;;;;1.45;1.35;;;2.00;99.90;;;;;;5128480;27;20404;-81
2022/01/26 05:24:57;;;;;;;6.15;3.75;;;2.00;99.90;;;;;;5098535;27;20027;-80
2022/01/26 05:27:23;;;;;;;18.17;6.68;;;2.00;99.90;;;;;;5098027;27;20039;-80
2022/01/26 05:29:48;;;;;;;6.03;2.67;;;2.00;99.90;;;;;;5114960;28;20074;-81
2022/01/26 05:32:14;;;;;;;5.97;2.63;;;2.00;99.90;;;;;;5115105;28;20043;-80
2022/01/26 05:34:39;;;;;;;7.32;3.63;;;2.00;99.90;;;;;;5102541;27;20041;-80
2022/01/26 05:37:05;;;;;;;7.28;3.45;;;2.00;99.90;;;;;;5114139;28;20031;-81
2022/01/26 05:39:32;;;;;;;5.72;2.65;;;2.00;99.90;;;;;;5114904;28;20035;-81
2022/01/26 05:41:58;;;;;;;16.60;5.47;;;2.00;99.90;;;;;;5098040;28;20035;-81
2022/01/26 05:44:23;;;;;;;3.78;2.25;;;2.00;99.90;;;;;;5098179;28;20491;-81
2022/01/26 05:46:50;;;;;;;6.03;1.92;;;2.00;99.90;;;;;;5097722;28;20039;-81
2022/01/26 05:49:19;;;;;;;2.63;1.92;;;2.00;99.90;;;;;;5115439;28;20039;-80
2022/01/26 05:51:47;;;;;;;7.07;4.30;;;2.00;99.90;;;;;;5114791;28;20070;-80
2022/01/26 05:54:16;;;;;;;10.65;3.90;;;2.00;99.90;;;;;;5097948;28;20046;-80
2022/01/26 05:56:42;;;;;;;15.77;6.53;;;2.00;99.90;;;;;;5097525;28;20038;-80
2022/01/26 05:59:09;;;;;;;3.22;2.45;;;2.00;99.90;;;;;;5097645;28;20066;-81
2022/01/26 06:01:35;;;;;;;11.73;3.67;;;2.00;99.90;;;;;;5118926;28;20164;-80
2022/01/26 06:04:00;;;;;;;18.15;5.30;;;2.00;99.90;;;;;;5097929;28;20496;-80
2022/01/26 06:06:26;;;;;;;20.85;6.47;;;2.00;99.90;;;;;;5097234;28;20403;-80
2022/01/26 06:08:51;;;;;;;11.27;4.53;;;2.00;99.90;;;;;;5100319;27;20165;-80
2022/01/26 06:11:17;;;;;;;16.60;6.25;;;2.00;99.90;;;;;;5120501;27;20041;-80
2022/01/26 06:13:43;;;;;;;12.68;4.95;;;2.10;99.90;;;;;;5122259;27;20043;-81
2022/01/26 06:16:08;;;;;;;15.18;6.53;;;2.00;99.90;;;;;;5138793;27;20054;-81
2022/01/26 06:18:34;;;;;;;9.00;4.70;;;2.10;99.90;;;;;;5101509;27;20049;-81
2022/01/26 06:20:59;;;;;;;9.48;4.85;;;2.10;99.90;;;;;;5118777;27;20057;-80
2022/01/26 06:23:26;;;;;;;24.27;6.53;;;2.10;99.90;;;;;;5125653;27;20027;-80
2022/01/26 06:25:54;;;;;;;9.57;4.70;;;2.10;99.90;;;;;;5117708;27;20035;-80
2022/01/26 06:28:19;;;;;;;14.70;6.07;;;2.10;99.90;;;;;;5121641;27;20555;-80
2022/01/26 06:30:49;;;;;;;12.40;4.43;;;2.10;99.90;;;;;;5139034;27;20043;-81
2022/01/26 06:33:15;;;;;;;14.63;5.05;;;2.10;99.90;;;;;;5139099;27;20125;-80
2022/01/26 06:35:41;;;;;;;5.80;3.25;;;2.10;99.90;;;;;;5121835;27;20122;-82
2022/01/26 06:38:07;;;;;;;14.38;6.50;;;2.10;99.90;;;;;;5116780;27;20035;-80
2022/01/26 06:40:33;;;;;;;3.72;1.98;;;2.10;99.90;;;;;;5100743;27;20039;-80
2022/01/26 06:43:02;;;;;;;9.75;4.43;;;2.10;99.90;;;;;;5100927;27;20057;-80
2022/01/26 06:45:32;;;;;;;6.88;2.20;;;2.10;99.90;;;;;;5104049;27;20030;-80
2022/01/26 06:50:42;;;;;;;3.97;2.63;;;2.10;99.90;;;;;;5138248;27;20085;-81
2022/01/26 06:53:07;;;;;;;1.85;1.75;;;2.10;99.90;;;;;;5138227;27;20074;-81
2022/01/26 06:55:35;;;;;;;19.95;8.95;;;2.10;99.90;;;;;;5121023;27;20141;-80
2022/01/26 06:58:01;;;;;;;10.27;4.15;;;2.20;99.90;;;;;;5137581;27;20423;-80
2022/01/26 07:00:26;;;;;;;12.88;6.28;;;2.20;99.90;;;;;;5121130;27;20038;-81
2022/01/26 07:02:54;;;;;;;13.82;5.97;;;2.20;99.90;;;;;;5121004;27;20034;-81
2022/01/26 07:05:20;;;;;;;24.02;8.27;;;2.20;99.90;;;;;;5120848;27;20475;-81
2022/01/26 07:07:46;;;;;;;10.40;4.47;;;2.20;99.90;;;;;;5120528;27;20034;-80
2022/01/26 07:10:11;;;;;;;13.45;4.75;;;2.20;99.90;;;;;;5128089;27;20039;-80
2022/01/26 07:12:37;;;;;;;10.48;3.00;;;2.20;99.90;;;;;;5113504;27;20026;-81
2022/01/26 07:21:21;;;;;;;4.95;3.08;;;2.30;99.90;;;;;;5136769;27;20046;-82
2022/01/26 07:23:24;;;;;;;11.50;6.50;;;2.30;99.90;;;;;;5116017;27;20434;-83
2022/01/26 07:25:50;;;;;;;24.08;10.25;;;2.30;99.90;;;;;;5082892;28;20032;-83
2022/01/26 07:28:16;;;;;;;10.13;6.43;;;2.30;99.90;;;;;;5096504;28;20040;-86
2022/01/26 07:30:42;;;;;;;4.43;3.13;;;2.30;99.90;;;;;;5108004;27;20086;-85
2022/01/26 07:33:08;;;;;;;15.93;5.18;;;2.30;99.90;;;;;;5120941;27;20125;-85
2022/01/26 07:35:34;;;;;;;20.20;8.32;;;2.30;99.90;;;;;;5116041;27;20126;-84
2022/01/26 07:38:01;;;;;;;24.20;8.15;;;2.40;99.90;;;;;;5099551;27;20385;-85
2022/01/26 07:40:27;;;;;;;20.08;7.32;;;2.30;99.90;;;;;;5107769;27;20030;-84
2022/01/26 07:42:52;;;;;;;5.57;3.10;;;2.40;99.90;;;;;;5120810;27;20043;-85
2022/01/26 07:45:18;;;;;;;6.30;3.20;;;2.40;99.90;;;;;;5100913;27;20043;-85
2022/01/26 07:47:45;;;;;;;29.02;8.45;;;3.00;99.90;;;;;;5099683;27;20035;-87
2022/01/26 07:50:12;;;;;;;13.52;5.43;;;2.40;99.90;;;;;;5099942;27;20572;-86
2022/01/26 07:52:40;;;;;;;10.52;5.03;;;2.40;99.90;;;;;;5099938;27;20031;-88
2022/01/26 07:55:08;;;;;;;14.63;8.55;;;2.40;99.90;;;;;;5100073;27;20027;-85
2022/01/26 07:57:33;;;;;;;25.38;12.77;;;2.40;99.90;;;;;;5129305;27;20045;-85
2022/01/26 07:59:59;;;;;;;17.85;9.38;;;2.40;99.90;;;;;;5103189;27;20031;-86
2022/01/26 08:02:24;;;;;;;19.70;6.35;;;2.50;99.90;;;;;;5099652;27;20035;-87
2022/01/26 08:04:50;;;;;;;12.05;5.03;;;2.50;99.90;;;;;;5099749;27;20091;-85
2022/01/26 08:07:16;;;;;;;13.52;7.07;;;2.50;99.90;;;;;;5116363;27;20129;-87
2022/01/26 08:09:44;;;;;;;18.08;8.40;;;2.50;99.90;;;;;;5116549;27;20039;-87
2022/01/26 08:12:11;;;;;;;25.50;11.85;;;2.50;99.90;;;;;;5099492;27;20039;-85
2022/01/26 08:14:37;;;;;;;32.65;11.93;;;2.60;99.90;;;;;;5099564;27;20713;-85
2022/01/26 08:17:04;;;;;;;28.42;12.25;;;2.60;99.90;;;;;;5119076;27;20078;-86
2022/01/26 08:19:30;;;;;;;23.45;8.30;;;2.60;99.90;;;;;;5120282;27;20035;-86
2022/01/26 08:22:01;;;;;;;19.55;9.90;;;2.60;99.90;;;;;;5111218;27;20053;-83
2022/01/26 08:24:31;;;;;;;35.60;14.88;;;2.60;99.90;;;;;;5115629;27;20031;-81
2022/01/26 08:27:02;;;;;;;32.65;13.75;;;2.60;99.90;;;;;;5103346;27;20877;-83
2022/01/26 08:29:38;;;;;;;28.85;9.85;;;2.70;99.90;;;;;;5119651;27;20026;-83
2022/01/26 08:32:04;;;;;;;42.92;16.40;;;2.70;99.90;;;;;;5114751;27;20480;-83
2022/01/26 08:34:29;;;;;;;28.63;9.27;;;2.70;99.90;;;;;;5099159;27;20063;-83
2022/01/26 08:36:55;;;;;;;13.88;7.32;;;2.70;99.90;;;;;;5115609;27;20427;-83
2022/01/26 08:39:21;;;;;;;5.80;3.33;;;2.70;99.90;;;;;;5098815;27;20035;-83
2022/01/26 08:41:47;;;;;;;25.88;13.43;;;2.70;99.90;;;;;;5098992;27;20560;-82
2022/01/26 08:44:12;;;;;;;34.13;13.50;;;2.80;99.90;;;;;;5098845;27;20803;-85
2022/01/26 08:46:38;;;;;;;24.30;11.30;;;2.80;99.90;;;;;;5123725;27;20031;-83
2022/01/26 08:49:05;;;;;;;32.78;14.50;;;2.80;99.90;;;;;;5099153;27;20147;-83
2022/01/26 08:51:31;;;;;;;41.05;17.02;;;2.80;99.90;;;;;;5098912;27;20052;-83
2022/01/26 08:53:57;;;;;;;33.75;12.23;;;2.80;99.90;;;;;;5099054;27;20066;-83
2022/01/26 08:56:22;;;;;;;16.77;7.32;;;2.80;99.90;;;;;;5115227;27;20078;-83
2022/01/26 08:58:48;;;;;;;21.23;7.93;;;2.80;99.90;;;;;;5135511;27;20046;-83
2022/01/26 09:01:13;;;;;;;21.73;10.05;;;3.00;99.90;;;;;;5118626;27;20035;-83
2022/01/26 09:03:39;;;;;;;15.73;7.70;;;2.90;99.90;;;;;;5102093;27;20091;-83
2022/01/26 09:06:08;;;;;;;16.85;6.82;;;2.90;99.90;;;;;;5118403;27;20039;-83
2022/01/26 09:08:35;;;;;;;33.60;14.90;;;3.40;99.90;;;;;;5134755;27;20045;-83
2022/01/26 09:11:02;;;;;;;6.47;4.05;;;3.00;99.90;;;;;;5116099;27;20041;-85
2022/01/26 09:13:33;;;;;;;7.97;4.40;;;2.90;99.90;;;;;;5118915;27;20039;-83
2022/01/26 09:16:03;;;;;;;30.65;13.77;;;2.90;99.90;;;;;;5135862;27;20095;-84
2022/01/26 09:18:46;;;;;;;16.00;5.78;;;2.90;99.90;;;;;;5118781;27;20034;-83
2022/01/26 09:21:11;;;;;;;19.60;10.65;;;3.00;99.90;;;;;;5130069;27;20091;-83
2022/01/26 09:23:37;;;;;;;31.55;13.02;;;3.00;99.90;;;;;;5098399;27;20031;-81
2022/01/26 09:26:04;;;;;;;14.13;7.90;;;3.00;99.90;;;;;;5098147;27;20081;-83
2022/01/26 09:28:29;;;;;;;14.27;6.20;;;3.00;99.90;;;;;;5107154;27;20163;-82
2022/01/26 09:30:55;;;;;;;14.55;8.13;;;3.00;99.90;;;;;;5118779;27;20504;-84
2022/01/26 09:33:20;;;;;;;30.80;9.50;;;3.00;99.90;;;;;;5106293;28;20129;-84
2022/01/26 09:35:47;;;;;;;7.68;5.13;;;3.10;99.90;;;;;;5135048;27;20426;-83
2022/01/26 09:38:13;;;;;;;8.70;4.72;;;3.10;99.90;;;;;;5117872;27;20038;-83
2022/01/26 09:40:38;;;;;;;14.20;7.45;;;3.10;99.90;;;;;;5118307;27;20041;-83
2022/01/26 09:43:04;;;;;;;23.27;9.38;;;3.10;99.90;;;;;;5134982;27;20087;-84
2022/01/26 09:45:34;;;;;;;15.52;6.93;;;3.10;99.90;;;;;;5118364;27;20047;-86
2022/01/26 09:48:04;;;;;;;8.68;4.00;;;3.10;99.90;;;;;;5117951;27;20084;-83
2022/01/26 09:50:30;;;;;;;26.25;8.73;;;3.10;99.90;;;;;;5135437;27;20092;-84
2022/01/26 09:52:56;;;;;;;19.08;5.80;;;3.20;99.90;;;;;;5118576;27;20035;-83
2022/01/26 09:55:23;;;;;;;21.23;10.55;;;3.20;99.90;;;;;;5122693;28;20092;-83
2022/01/26 09:57:49;;;;;;;8.35;4.80;;;3.20;99.90;;;;;;5109719;27;20502;-85
2022/01/26 10:00:15;;;;;;;26.48;10.25;;;3.20;99.90;;;;;;5118016;27;20083;-84
2022/01/26 10:02:44;;;;;;;3.80;3.00;;;3.20;99.90;;;;;;5135350;27;20034;-83
2022/01/26 10:05:16;;;;;;;13.00;6.93;;;3.30;99.90;;;;;;5118329;27;20035;-84
2022/01/26 10:08:15;;;;;;;20.65;8.95;;;3.30;99.90;;;;;;5118071;27;20433;-83
2022/01/26 10:15:28;;;;;;;10.73;3.75;;;3.30;99.90;;;;;;5118168;27;20031;-82
2022/01/26 10:19:03;;;;;;;13.23;5.88;;;3.40;99.90;;;;;;5105088;27;20049;-85
2022/01/26 10:21:31;;;;;;;15.68;7.38;;;3.40;99.90;;;;;;5113786;27;20038;-84
2022/01/26 10:24:10;;;;;;;19.25;9.20;;;3.40;99.90;;;;;;5113046;28;20050;-83
2022/01/26 10:26:35;;;;;;;13.75;6.25;;;3.40;99.90;;;;;;5097087;28;20039;-82
2022/01/26 10:29:05;;;;;;;24.63;10.10;;;3.90;99.90;;;;;;5097711;28;20043;-83
2022/01/26 10:31:49;;;;;;;14.57;8.02;;;3.90;99.90;;;;;;5114586;28;20041;-84
2022/01/26 10:34:22;;;;;;;30.58;11.68;;;3.70;99.90;;;;;;5097910;28;20122;-85
2022/01/26 10:36:50;;;;;;;26.27;9.57;;;3.60;99.90;;;;;;5097069;28;20122;-85
2022/01/26 10:40:14;;;;;;;12.30;5.03;;;3.50;99.90;;;;;;5097327;28;20039;-84
2022/01/26 10:42:39;;;;;;;22.75;10.43;;;3.50;99.90;;;;;;5114476;28;20047;-84
2022/01/26 10:45:12;;;;;;;20.85;9.48;;;3.50;99.90;;;;;;5111793;27;20951;-84
2022/01/26 10:47:39;;;;;;;24.80;9.20;;;3.50;99.90;;;;;;5117402;27;20376;-85
2022/01/26 10:53:26;;;;;;;13.60;4.45;;;3.50;99.90;;;;;;5090725;27;20502;-84
2022/01/26 10:55:52;;;;;;;23.08;11.30;;;3.70;99.90;;;;;;5121839;27;20102;-85
2022/01/26 10:58:18;;;;;;;31.92;13.48;;;3.60;99.90;;;;;;5103925;27;20551;-85
2022/01/26 11:00:44;;;;;;;34.47;12.57;;;3.50;99.90;;;;;;5121216;27;20034;-84
2022/01/26 11:03:10;;;;;;;31.17;11.35;;;3.50;99.90;;;;;;5139016;27;20406;-83
2022/01/26 11:05:36;;;;;;;16.33;7.63;;;3.50;99.90;;;;;;5116562;27;20109;-85
2022/01/26 11:08:04;;;;;;;13.10;6.32;;;3.60;99.90;;;;;;5104337;27;20064;-84
2022/01/26 11:10:35;;;;;;;9.63;3.40;;;3.60;99.90;;;;;;5100814;27;20045;-82
2022/01/26 11:13:01;;;;;;;30.48;12.48;;;3.60;99.90;;;;;;5117629;27;20072;-83
2022/01/26 11:15:26;;;;;;;18.70;5.93;;;3.60;99.90;;;;;;5100662;27;20043;-83
2022/01/26 11:18:03;;;;;;;19.38;9.13;;;3.60;99.90;;;;;;5100381;27;20039;-84
2022/01/26 11:20:31;;;;;;;23.08;9.35;;;3.60;99.90;;;;;;5100511;27;20059;-84
2022/01/26 11:23:00;;;;;;;7.78;3.63;;;3.60;99.90;;;;;;5100637;27;20041;-84
2022/01/26 11:25:38;;;;;;;13.05;5.47;;;3.60;99.90;;;;;;5100358;27;20061;-83
2022/01/26 11:28:22;;;;;;;23.38;11.07;;;3.60;99.90;;;;;;5099903;27;20086;-82
2022/01/26 11:30:49;;;;;;;22.83;10.35;;;3.70;99.90;;;;;;5130103;27;20387;-82
2022/01/26 11:33:25;;;;;;;15.88;7.45;;;3.70;99.90;;;;;;5120565;27;20035;-83
2022/01/26 11:35:53;;;;;;;22.15;9.63;;;3.70;99.90;;;;;;5120921;27;20035;-82
2022/01/26 11:46:36;;;;;;;14.30;4.85;;;3.70;99.90;;;;;;5109041;27;20089;-83
2022/01/26 11:49:10;;;;;;;19.95;7.88;;;3.70;99.90;;;;;;5120060;27;20042;-84
2022/01/26 11:51:50;;;;;;;23.50;10.48;;;3.70;99.90;;;;;;5120147;27;20074;-83
2022/01/26 11:54:18;;;;;;;19.80;10.43;;;3.70;99.90;;;;;;5103520;27;20057;-83
2022/01/26 11:57:16;;;;;;;25.33;11.55;;;3.70;99.90;;;;;;5079108;28;20069;-83
2022/01/26 11:59:50;;;;;;;13.88;7.80;;;3.80;99.90;;;;;;5107686;27;20158;-84
2022/01/26 12:02:23;;;;;;;10.13;4.43;;;3.70;99.90;;;;;;5136879;27;20046;-82
2022/01/26 12:05:10;;;;;;;9.88;5.18;;;3.80;99.90;;;;;;5119788;27;20057;-83
2022/01/26 12:07:58;;;;;;;8.32;3.85;;;3.80;99.90;;;;;;5119000;27;20038;-83
2022/01/26 12:10:30;;;;;;;17.85;8.05;;;3.80;99.90;;;;;;5136976;27;20050;-85
2022/01/26 12:13:11;;;;;;;18.90;7.13;;;3.80;99.90;;;;;;5136821;27;20121;-84
2022/01/26 12:15:43;;;;;;;21.25;9.88;;;3.80;99.90;;;;;;5119679;27;20081;-83
2022/01/26 12:18:37;;;;;;;14.32;6.07;;;3.80;99.90;;;;;;5110543;27;20731;-83
2022/01/26 12:35:15;;;;;;;7.30;4.38;;;3.90;99.90;;;;;;5116212;27;20141;-84
2022/01/26 12:43:17;;;;;;;21.38;7.15;;;3.90;99.90;;;;;;5115887;27;20077;-84
2022/01/26 12:45:45;;;;;;;23.20;6.72;;;3.90;99.90;;;;;;5115652;27;20035;-83
2022/01/26 12:48:11;;;;;;;4.13;2.35;;;3.90;99.90;;;;;;5110529;27;20087;-84
2022/01/26 12:50:39;;;;;;;22.75;9.70;;;3.90;99.90;;;;;;5136299;27;20133;-83
2022/01/26 12:53:05;;;;;;;14.80;7.20;;;3.90;99.90;;;;;;5119120;27;20060;-83
2022/01/26 12:55:35;;;;;;;5.13;3.00;;;3.90;99.90;;;;;;5136491;27;20034;-83
2022/01/26 12:58:01;;;;;;;11.73;6.05;;;3.90;99.90;;;;;;5135585;27;20085;-83
2022/01/26 13:00:40;;;;;;;6.05;3.38;;;3.90;99.90;;;;;;5119382;27;20421;-83
2022/01/26 13:03:11;;;;;;;1.95;1.17;;;3.90;99.90;;;;;;5118983;27;20035;-83
2022/01/26 13:05:37;;;;;;;16.98;7.30;;;3.90;99.90;;;;;;5110718;27;20027;-82
2022/01/26 13:08:04;;;;;;;15.95;6.43;;;3.90;99.90;;;;;;5118342;27;20045;-83
2022/01/26 13:10:31;;;;;;;10.90;4.80;;;3.90;99.90;;;;;;5119200;27;20035;-84
2022/01/26 13:13:12;;;;;;;4.68;2.05;;;3.90;99.90;;;;;;5118719;27;20041;-84
2022/01/26 13:15:56;;;;;;;19.08;7.68;;;3.90;99.90;;;;;;5118884;27;20121;-85
2022/01/26 13:18:45;;;;;;;6.07;3.20;;;4.00;99.90;;;;;;5099145;27;20528;-85
2022/01/26 13:22:32;;;;;;;16.48;6.95;;;3.90;99.90;;;;;;5098091;27;20035;-85
2022/01/26 13:24:30;;;;;;;3.50;2.35;;;3.90;99.90;;;;;;5097521;27;20179;-84
2022/01/26 13:27:10;;;;;;;14.02;3.58;;;3.90;99.90;;;;;;5099886;27;20035;-86
2022/01/26 13:29:58;;;;;;;28.73;10.70;;;3.90;99.90;;;;;;5119822;27;20411;-86
2022/01/26 13:35:13;;;;;;;11.75;5.82;;;4.20;99.90;;;;;;5134099;27;20053;-84
2022/01/26 13:38:04;;;;;;;9.80;5.20;;;3.90;99.90;;;;;;5077300;28;20040;-84
2022/01/26 13:40:42;;;;;;;9.55;4.45;;;3.90;99.90;;;;;;5094148;28;20052;-84
2022/01/26 13:59:23;;;;;;;7.50;3.55;;;4.10;99.90;;;;;;5094362;28;20647;-85
2022/01/26 14:01:50;;;;;;;18.35;6.38;;;4.20;99.90;;;;;;5077757;28;20039;-85
2022/01/26 14:04:17;;;;;;;12.27;6.20;;;4.20;99.90;;;;;;5077383;28;20032;-85
2022/01/26 14:06:47;;;;;;;9.40;5.07;;;4.20;99.90;;;;;;5077106;28;20036;-84
2022/01/26 14:09:14;;;;;;;21.73;8.68;;;4.20;99.90;;;;;;5086655;27;20039;-84
2022/01/26 14:11:40;;;;;;;26.77;11.40;;;4.30;99.90;;;;;;5118202;27;20480;-82
2022/01/26 14:14:08;;;;;;;27.08;11.48;;;4.30;99.90;;;;;;5114155;28;20114;-83
2022/01/26 14:16:40;;;;;;;27.00;11.15;;;4.30;99.90;;;;;;5105928;27;20111;-84
2022/01/26 14:19:25;;;;;;;22.15;6.97;;;4.30;99.90;;;;;;5118056;27;20046;-83
2022/01/26 14:22:49;;;;;;;21.38;7.03;;;4.40;99.90;;;;;;5118281;27;20062;-83
2022/01/26 14:27:15;;;;;;;17.95;9.15;;;4.40;99.90;;;;;;5119515;27;20134;-84
2022/01/26 14:29:59;;;;;;;21.98;8.15;;;4.40;99.90;;;;;;5120382;27;20117;-84
2022/01/26 14:33:00;;;;;;;19.50;9.18;;;4.40;99.90;;;;;;5122272;27;20487;-84
2022/01/26 14:39:37;;;;;;;25.20;9.05;;;4.60;99.90;;;;;;5138620;27;20043;-84
2022/01/26 14:50:53;;;;;;;7.72;2.95;;;4.50;99.90;;;;;;5124791;27;20039;-84
2022/01/26 14:54:59;;;;;;;8.48;4.85;;;4.50;99.90;;;;;;5138611;27;20098;-84
2022/01/26 15:08:47;;;;;;;2.97;1.60;;;4.50;99.90;;;;;;5097366;28;20052;-82
2022/01/26 15:30:16;;;;;;;16.67;7.90;;;4.40;99.90;;;;;;5117386;27;20046;-84
2022/01/26 15:51:01;;;;;;;6.60;2.42;;;4.40;99.90;;;;;;5120741;27;20050;-84
2022/01/26 16:04:56;;;;;;;5.15;2.38;;;4.40;99.90;;;;;;5116797;27;20043;-83
2022/01/26 16:07:24;;;;;;;15.13;6.38;;;4.40;99.90;;;;;;5116295;27;20095;-83
2022/01/26 16:12:45;;;;;;;11.57;5.65;;;4.50;99.90;;;;;;5125481;27;20601;-84
2022/01/26 16:21:02;;;;;;;13.50;6.13;;;4.50;99.90;;;;;;5116367;27;20039;-83
2022/01/26 16:37:42;;;;;;;16.95;7.25;;;4.50;99.90;;;;;;5124524;27;20131;-83
2022/01/26 16:52:24;;;;;;;11.00;6.25;;;4.60;99.90;;;;;;5136680;27;20042;-84
2022/01/26 16:54:05;;;;;;;7.68;4.13;;;4.60;99.90;;;;;;5135959;27;20125;-85
2022/01/26 17:48:39;;;;;;;15.55;6.90;;;5.10;99.90;;;;;;5119987;28;20092;-83
2022/01/26 18:39:07;;;;;;;23.05;7.28;;;5.10;99.90;;;;;;5118086;27;20452;-83
2022/01/26 18:49:12;;;;;;;5.25;3.55;;;5.00;99.90;;;;;;5138337;27;20049;-84
2022/01/26 18:49:54;;;;;;;16.58;8.88;;;5.00;99.90;;;;;;5138829;27;20145;-83
2022/01/26 18:52:20;;;;;;;14.27;7.07;;;5.00;99.90;;;;;;5121721;27;20130;-84
2022/01/26 18:54:45;;;;;;;25.23;11.63;;;5.00;99.90;;;;;;5121882;27;20129;-85
2022/01/26 18:57:11;;;;;;;13.02;6.38;;;4.90;99.90;;;;;;5116904;27;20461;-83
2022/01/26 18:59:37;;;;;;;24.92;10.93;;;4.90;99.90;;;;;;5121429;27;20062;-83